Have a Safe July 4th! 

Flight Track Log - Related Links

Times and Time Zones

All times are in EDT time to prevent confusion due to time zone crossing. See the CHQ5046 flight status page for this flight to view local times or setup timezone preferences in your user account.

Time Position Orientation Groundspeed Altitude Reporting Facility
EDT Latitude Longitude Course Direction KTS MPH feet Rate Location/Type
Sun 07:03:00 PM 42.0667 -87.8667 87° East 253 291 5,200  Level Chicago TRACON
Sun 07:04:00 PM 42.0409 -87.4761 84° East  Level FlightAware Approximate
Sun 07:04:00 PM 42.0833 -87.7667 77° East 284 327 8,000  Level Chicago TRACON
Sun 07:05:00 PM 42.0563 -87.3268 78° East  Level FlightAware Approximate
Sun 07:05:18 PM 42.1047 -87.6333 78° East 303 349 10,400  Level Chicago Center
Sun 07:06:00 PM 42.0797 -87.1792 78° East  Level FlightAware Approximate
Sun 07:06:20 PM 42.1056 -87.5075 89° East 329 379 11,000  Level Chicago Center
Sun 07:07:00 PM 42.0948 -87.0831 78° East  Level FlightAware Approximate
Sun 07:07:22 PM 42.1100 -87.3719 87° East 355 409 12,300  Level Chicago Center
Sun 07:08:00 PM 42.1026 -86.9856 87° East  Level FlightAware Approximate
Sun 07:08:24 PM 42.1106 -87.2358 90° East 362 417 13,000  Level Chicago Center
Sun 07:09:27 PM 42.1125 -87.0894 89° East 384 442 13,000 48 Level Chicago Center
Sun 07:10:29 PM 42.1169 -86.9308 88° East 409 471 13,100 48 Climbing Chicago Center
Sun 07:11:31 PM 42.1222 -86.7783 87° East 409 471 13,100  Level Chicago Center
Sun 07:12:33 PM 42.1292 -86.5972 87° East 405 466 13,100 -194 Level Chicago Center
Sun 07:13:35 PM 42.1336 -86.4475 88° East 403 464 12,700 -484 Descending Chicago Center
Sun 07:14:37 PM 42.1392 -86.2958 87° East 404 465 12,100 -677 Descending Chicago Center
Sun 07:15:39 PM 42.1433 -86.1475 88° East 397 457 11,300 -532 Descending Chicago Center
Sun 07:16:41 PM 42.1375 -86.0108 93° East 366 421 11,000 -919 Descending Chicago Center
Sun 07:17:43 PM 42.1225 -85.8778 99° East 316 364 9,400 -1,694 Descending Chicago Center
Sun 07:18:45 PM 42.1089 -85.7717 100° East 291 335 7,500 -1,920 Descending Chicago Center
Sun 07:19:48 PM 42.1006 -85.6722 96° East 275 316 5,400 -1,776 Descending Chicago Center
Sun 07:20:50 PM 42.0939 -85.5819 96° East 253 291 3,800 -1,210 Descending Chicago Center
Sun 07:21:52 PM 42.1300 -85.5289 47° Northeast 209 241 2,900 -871 Descending Chicago Center
Sun 07:22:54 PM 42.1714 -85.5378 351° North 166 191 2,000 -774 Descending Chicago Center
Sun 07:23:56 PM 42.2069 -85.5461 350° North 142 163 1,300 -677 Descending Chicago Center

Login

Don't have an account? Register now (free) for customized features, flight alerts, and more!